ePrivacy and GPDR Cookie Consent by Cookie Consent
EmailTwitter


Surface observations / France / LFBO (07630)

Regions: Quebec | Canada | USA | Europe | France | UK | Elsewhere
Station
Display
Info & Location for LFBO (07630) | Help decoding METAR

Weather Conditions observed on 2021/05/06 at 22:00 UTC at TOULOUSE/BLAGNAC, FR (LFBO)

Sky conditions: overcast.

Obstruction(s) to Vision: light rain.

Temperature: 16.0 Celsius.

Dewpoint: 11.0 Celsius.

Relative Humidity: 72%

Winds: Northwest at 13 km/h or 7 knots.

Mean Sea level Pressure: 101.60 kilopascals.

Horizontal visibility: 6.21 statute miles or 9.94 kilometers.

Height of the Ceiling: 1311 metres ( 4300 feet ).

Coded METAR:

LFBO 062200Z AUTO 30007KT 9999 -RA FEW035 BKN043 OVC110 16/11 Q1016 BECMG

BKN014=